sensor_id;sensor_type;location;lat;lon;timestamp;temperature;humidity
3660;DHT22;1846;51.482;7.224;2023-06-26T00:01:57;25.20;6.50
3660;DHT22;1846;51.482;7.224;2023-06-26T00:04:24;25.30;6.90
3660;DHT22;1846;51.482;7.224;2023-06-26T00:06:50;25.30;3.90
3660;DHT22;1846;51.482;7.224;2023-06-26T00:09:17;25.30;12.00
3660;DHT22;1846;51.482;7.224;2023-06-26T00:11:44;25.40;2.80
3660;DHT22;1846;51.482;7.224;2023-06-26T00:14:12;25.40;1.30
3660;DHT22;1846;51.482;7.224;2023-06-26T00:16:39;25.40;1.00
3660;DHT22;1846;51.482;7.224;2023-06-26T00:19:08;25.50;1.00
3660;DHT22;1846;51.482;7.224;2023-06-26T00:21:34;25.50;1.40
3660;DHT22;1846;51.482;7.224;2023-06-26T00:24:01;25.40;1.20
3660;DHT22;1846;51.482;7.224;2023-06-26T00:26:28;25.30;1.00
3660;DHT22;1846;51.482;7.224;2023-06-26T00:28:55;25.30;1.00
3660;DHT22;1846;51.482;7.224;2023-06-26T00:31:23;25.40;1.00
3660;DHT22;1846;51.482;7.224;2023-06-26T00:33:50;25.40;1.00
3660;DHT22;1846;51.482;7.224;2023-06-26T00:36:16;25.40;1.00
3660;DHT22;1846;51.482;7.224;2023-06-26T00:38:43;25.50;1.00
3660;DHT22;1846;51.482;7.224;2023-06-26T00:41:10;25.40;1.00
3660;DHT22;1846;51.482;7.224;2023-06-26T00:43:38;25.40;1.00
3660;DHT22;1846;51.482;7.224;2023-06-26T00:46:09;25.50;1.00
3660;DHT22;1846;51.482;7.224;2023-06-26T00:48:37;25.50;1.00
3660;DHT22;1846;51.482;7.224;2023-06-26T00:51:06;25.40;1.00
3660;DHT22;1846;51.482;7.224;2023-06-26T00:53:33;25.30;1.00
3660;DHT22;1846;51.482;7.224;2023-06-26T00:56:00;25.30;1.00
3660;DHT22;1846;51.482;7.224;2023-06-26T00:58:28;25.30;1.00
3660;DHT22;1846;51.482;7.224;2023-06-26T01:00:55;25.30;1.00
3660;DHT22;1846;51.482;7.224;2023-06-26T01:03:24;25.20;1.00
3660;DHT22;1846;51.482;7.224;2023-06-26T01:05:54;25.30;1.00
3660;DHT22;1846;51.482;7.224;2023-06-26T01:08:23;25.20;1.00
3660;DHT22;1846;51.482;7.224;2023-06-26T01:10:50;25.20;1.00
3660;DHT22;1846;51.482;7.224;2023-06-26T01:13:17;25.20;1.00
3660;DHT22;1846;51.482;7.224;2023-06-26T01:15:45;25.20;1.00
3660;DHT22;1846;51.482;7.224;2023-06-26T01:18:12;25.20;1.00
3660;DHT22;1846;51.482;7.224;2023-06-26T01:20:41;25.20;1.00
3660;DHT22;1846;51.482;7.224;2023-06-26T01:23:17;25.20;1.00
3660;DHT22;1846;51.482;7.224;2023-06-26T01:25:56;25.20;1.00
3660;DHT22;1846;51.482;7.224;2023-06-26T01:28:29;25.20;1.00
3660;DHT22;1846;51.482;7.224;2023-06-26T01:30:56;25.20;1.00
3660;DHT22;1846;51.482;7.224;2023-06-26T01:33:24;25.20;1.00
3660;DHT22;1846;51.482;7.224;2023-06-26T01:35:51;25.20;1.00
3660;DHT22;1846;51.482;7.224;2023-06-26T01:38:19;25.20;1.00
3660;DHT22;1846;51.482;7.224;2023-06-26T01:40:46;25.20;1.00
3660;DHT22;1846;51.482;7.224;2023-06-26T01:43:27;25.10;1.00
3660;DHT22;1846;51.482;7.224;2023-06-26T01:45:58;25.00;1.00
3660;DHT22;1846;51.482;7.224;2023-06-26T01:48:30;25.00;1.00
3660;DHT22;1846;51.482;7.224;2023-06-26T01:50:58;24.90;1.00
3660;DHT22;1846;51.482;7.224;2023-06-26T01:53:33;24.80;1.10
3660;DHT22;1846;51.482;7.224;2023-06-26T01:56:07;24.70;2.40
3660;DHT22;1846;51.482;7.224;2023-06-26T01:58:35;24.50;3.80
3660;DHT22;1846;51.482;7.224;2023-06-26T02:01:05;24.50;5.20
3660;DHT22;1846;51.482;7.224;2023-06-26T02:03:32;24.40;7.10
3660;DHT22;1846;51.482;7.224;2023-06-26T02:05:58;24.40;7.90
3660;DHT22;1846;51.482;7.224;2023-06-26T02:08:25;24.40;7.60
3660;DHT22;1846;51.482;7.224;2023-06-26T02:10:52;24.30;5.70
3660;DHT22;1846;51.482;7.224;2023-06-26T02:13:19;24.30;7.40
3660;DHT22;1846;51.482;7.224;2023-06-26T02:15:45;24.20;6.80
3660;DHT22;1846;51.482;7.224;2023-06-26T02:18:14;24.20;6.70
3660;DHT22;1846;51.482;7.224;2023-06-26T02:20:40;24.20;8.20
3660;DHT22;1846;51.482;7.224;2023-06-26T02:23:09;24.20;9.10
3660;DHT22;1846;51.482;7.224;2023-06-26T02:25:36;24.10;9.90
3660;DHT22;1846;51.482;7.224;2023-06-26T02:28:03;24.10;6.60
3660;DHT22;1846;51.482;7.224;2023-06-26T02:30:30;24.10;9.20
3660;DHT22;1846;51.482;7.224;2023-06-26T02:32:56;24.10;9.90
3660;DHT22;1846;51.482;7.224;2023-06-26T02:35:24;24.10;8.70
3660;DHT22;1846;51.482;7.224;2023-06-26T02:37:51;24.00;6.40
3660;DHT22;1846;51.482;7.224;2023-06-26T02:40:18;24.00;7.40
3660;DHT22;1846;51.482;7.224;2023-06-26T02:42:45;24.00;10.50
3660;DHT22;1846;51.482;7.224;2023-06-26T02:45:12;24.00;11.00
3660;DHT22;1846;51.482;7.224;2023-06-26T02:47:38;23.90;10.20
3660;DHT22;1846;51.482;7.224;2023-06-26T02:50:06;23.90;12.70
3660;DHT22;1846;51.482;7.224;2023-06-26T02:52:34;23.80;10.80
3660;DHT22;1846;51.482;7.224;2023-06-26T02:55:01;23.80;11.00
3660;DHT22;1846;51.482;7.224;2023-06-26T02:57:28;23.90;10.80
3660;DHT22;1846;51.482;7.224;2023-06-26T02:59:55;23.90;9.30
3660;DHT22;1846;51.482;7.224;2023-06-26T03:02:22;23.90;10.60
3660;DHT22;1846;51.482;7.224;2023-06-26T03:04:49;23.90;10.10
3660;DHT22;1846;51.482;7.224;2023-06-26T03:07:16;23.90;9.60
3660;DHT22;1846;51.482;7.224;2023-06-26T03:09:44;23.90;10.60
3660;DHT22;1846;51.482;7.224;2023-06-26T03:12:11;23.80;11.30
3660;DHT22;1846;51.482;7.224;2023-06-26T03:14:37;23.80;11.60
3660;DHT22;1846;51.482;7.224;2023-06-26T03:17:04;23.80;10.50
3660;DHT22;1846;51.482;7.224;2023-06-26T03:19:32;23.90;10.70
3660;DHT22;1846;51.482;7.224;2023-06-26T03:21:59;23.80;13.00
3660;DHT22;1846;51.482;7.224;2023-06-26T03:24:26;23.70;15.00
3660;DHT22;1846;51.482;7.224;2023-06-26T03:26:54;23.80;13.50
3660;DHT22;1846;51.482;7.224;2023-06-26T03:29:21;23.80;10.70
3660;DHT22;1846;51.482;7.224;2023-06-26T03:31:47;23.80;10.10
3660;DHT22;1846;51.482;7.224;2023-06-26T03:34:14;23.80;9.30
3660;DHT22;1846;51.482;7.224;2023-06-26T03:36:41;23.80;8.50
3660;DHT22;1846;51.482;7.224;2023-06-26T03:39:08;23.80;8.30
3660;DHT22;1846;51.482;7.224;2023-06-26T03:41:34;23.80;8.60
3660;DHT22;1846;51.482;7.224;2023-06-26T03:44:02;23.90;9.80
3660;DHT22;1846;51.482;7.224;2023-06-26T03:46:29;23.90;10.30
3660;DHT22;1846;51.482;7.224;2023-06-26T03:48:56;23.80;11.80
3660;DHT22;1846;51.482;7.224;2023-06-26T03:51:23;23.80;13.00
3660;DHT22;1846;51.482;7.224;2023-06-26T03:53:50;23.90;14.00
3660;DHT22;1846;51.482;7.224;2023-06-26T03:56:16;24.00;17.00
3660;DHT22;1846;51.482;7.224;2023-06-26T03:58:43;24.00;19.20
3660;DHT22;1846;51.482;7.224;2023-06-26T04:01:11;23.90;23.10
3660;DHT22;1846;51.482;7.224;2023-06-26T04:03:38;23.90;29.30
3660;DHT22;1846;51.482;7.224;2023-06-26T04:06:05;23.90;33.40
3660;DHT22;1846;51.482;7.224;2023-06-26T04:08:32;23.80;42.80
3660;DHT22;1846;51.482;7.224;2023-06-26T04:10:58;23.80;50.20
3660;DHT22;1846;51.482;7.224;2023-06-26T04:13:25;23.80;57.90
3660;DHT22;1846;51.482;7.224;2023-06-26T04:15:52;23.80;58.30
3660;DHT22;1846;51.482;7.224;2023-06-26T04:18:20;24.00;58.40
3660;DHT22;1846;51.482;7.224;2023-06-26T04:21:05;23.80;60.40
3660;DHT22;1846;51.482;7.224;2023-06-26T04:23:33;23.70;78.60
3660;DHT22;1846;51.482;7.224;2023-06-26T04:26:00;23.70;90.00
3660;DHT22;1846;51.482;7.224;2023-06-26T04:28:28;23.60;94.30
3660;DHT22;1846;51.482;7.224;2023-06-26T04:30:54;23.60;99.60
3660;DHT22;1846;51.482;7.224;2023-06-26T04:33:22;23.60;99.90
3660;DHT22;1846;51.482;7.224;2023-06-26T04:35:49;23.40;99.90
3660;DHT22;1846;51.482;7.224;2023-06-26T04:38:16;23.40;99.90
3660;DHT22;1846;51.482;7.224;2023-06-26T04:40:43;23.30;99.90
3660;DHT22;1846;51.482;7.224;2023-06-26T04:43:10;23.30;99.90
3660;DHT22;1846;51.482;7.224;2023-06-26T04:45:37;23.30;99.90
3660;DHT22;1846;51.482;7.224;2023-06-26T04:48:04;23.20;99.90
3660;DHT22;1846;51.482;7.224;2023-06-26T04:50:33;23.20;99.90
3660;DHT22;1846;51.482;7.224;2023-06-26T04:53:01;23.20;99.90
3660;DHT22;1846;51.482;7.224;2023-06-26T04:55:28;23.20;99.90
3660;DHT22;1846;51.482;7.224;2023-06-26T04:57:56;23.20;99.90
3660;DHT22;1846;51.482;7.224;2023-06-26T05:00:22;23.20;99.90
3660;DHT22;1846;51.482;7.224;2023-06-26T05:02:50;23.20;99.90
3660;DHT22;1846;51.482;7.224;2023-06-26T05:05:24;23.30;99.90
3660;DHT22;1846;51.482;7.224;2023-06-26T05:07:53;23.30;99.90
3660;DHT22;1846;51.482;7.224;2023-06-26T05:10:20;23.30;99.90
3660;DHT22;1846;51.482;7.224;2023-06-26T05:12:47;23.30;99.90
3660;DHT22;1846;51.482;7.224;2023-06-26T05:15:14;23.30;99.90
3660;DHT22;1846;51.482;7.224;2023-06-26T05:17:40;23.20;99.90
3660;DHT22;1846;51.482;7.224;2023-06-26T05:20:08;23.10;99.90
3660;DHT22;1846;51.482;7.224;2023-06-26T05:22:37;23.20;99.90
3660;DHT22;1846;51.482;7.224;2023-06-26T05:25:08;23.10;99.90
3660;DHT22;1846;51.482;7.224;2023-06-26T05:27:36;23.10;99.90
3660;DHT22;1846;51.482;7.224;2023-06-26T05:30:04;23.00;99.90
3660;DHT22;1846;51.482;7.224;2023-06-26T05:32:34;23.00;99.90
3660;DHT22;1846;51.482;7.224;2023-06-26T05:35:02;22.90;99.90
3660;DHT22;1846;51.482;7.224;2023-06-26T05:37:31;22.90;99.90
3660;DHT22;1846;51.482;7.224;2023-06-26T05:39:59;22.90;99.90
3660;DHT22;1846;51.482;7.224;2023-06-26T05:42:28;23.00;99.90
3660;DHT22;1846;51.482;7.224;2023-06-26T05:44:55;23.10;99.90
3660;DHT22;1846;51.482;7.224;2023-06-26T05:47:22;23.10;99.90
3660;DHT22;1846;51.482;7.224;2023-06-26T05:49:49;23.20;99.90
3660;DHT22;1846;51.482;7.224;2023-06-26T05:52:16;23.30;99.90
3660;DHT22;1846;51.482;7.224;2023-06-26T05:54:44;23.30;99.90
3660;DHT22;1846;51.482;7.224;2023-06-26T05:57:12;23.40;99.90
3660;DHT22;1846;51.482;7.224;2023-06-26T05:59:43;23.50;99.90
3660;DHT22;1846;51.482;7.224;2023-06-26T06:02:10;23.60;99.90
3660;DHT22;1846;51.482;7.224;2023-06-26T06:04:37;23.70;99.90
3660;DHT22;1846;51.482;7.224;2023-06-26T06:07:05;23.60;99.90
3660;DHT22;1846;51.482;7.224;2023-06-26T06:09:31;23.50;99.90
3660;DHT22;1846;51.482;7.224;2023-06-26T06:11:58;23.40;99.90
3660;DHT22;1846;51.482;7.224;2023-06-26T06:14:27;23.40;99.90
3660;DHT22;1846;51.482;7.224;2023-06-26T06:16:55;23.20;99.90
3660;DHT22;1846;51.482;7.224;2023-06-26T06:19:22;23.20;99.90
3660;DHT22;1846;51.482;7.224;2023-06-26T06:21:49;23.20;99.90
3660;DHT22;1846;51.482;7.224;2023-06-26T06:24:16;23.20;99.90
3660;DHT22;1846;51.482;7.224;2023-06-26T06:26:43;23.20;99.90
3660;DHT22;1846;51.482;7.224;2023-06-26T06:29:10;23.10;99.90
3660;DHT22;1846;51.482;7.224;2023-06-26T06:31:36;23.10;99.90
3660;DHT22;1846;51.482;7.224;2023-06-26T06:34:04;23.20;99.90
3660;DHT22;1846;51.482;7.224;2023-06-26T06:36:31;23.10;99.90
3660;DHT22;1846;51.482;7.224;2023-06-26T06:38:58;23.20;99.90
3660;DHT22;1846;51.482;7.224;2023-06-26T06:41:25;23.20;99.90
3660;DHT22;1846;51.482;7.224;2023-06-26T06:43:52;23.40;99.90
3660;DHT22;1846;51.482;7.224;2023-06-26T06:46:19;23.50;99.90
3660;DHT22;1846;51.482;7.224;2023-06-26T06:48:45;23.30;99.90
3660;DHT22;1846;51.482;7.224;2023-06-26T06:51:14;23.50;99.90
3660;DHT22;1846;51.482;7.224;2023-06-26T06:53:41;23.30;99.90
3660;DHT22;1846;51.482;7.224;2023-06-26T06:56:08;23.30;99.90
3660;DHT22;1846;51.482;7.224;2023-06-26T06:58:34;23.30;99.90
3660;DHT22;1846;51.482;7.224;2023-06-26T07:01:02;23.30;99.90
3660;DHT22;1846;51.482;7.224;2023-06-26T07:03:29;23.20;99.90
3660;DHT22;1846;51.482;7.224;2023-06-26T07:05:56;23.00;99.90
3660;DHT22;1846;51.482;7.224;2023-06-26T07:08:24;22.80;99.90
3660;DHT22;1846;51.482;7.224;2023-06-26T07:10:51;22.80;99.90
3660;DHT22;1846;51.482;7.224;2023-06-26T07:13:18;22.90;99.90
3660;DHT22;1846;51.482;7.224;2023-06-26T07:15:45;22.80;99.90
3660;DHT22;1846;51.482;7.224;2023-06-26T07:18:13;22.80;99.90
3660;DHT22;1846;51.482;7.224;2023-06-26T07:20:40;22.60;99.90
3660;DHT22;1846;51.482;7.224;2023-06-26T07:23:07;22.50;99.90
3660;DHT22;1846;51.482;7.224;2023-06-26T07:25:35;22.50;99.90
3660;DHT22;1846;51.482;7.224;2023-06-26T07:28:02;22.70;99.90
3660;DHT22;1846;51.482;7.224;2023-06-26T07:30:29;22.90;99.90
3660;DHT22;1846;51.482;7.224;2023-06-26T07:32:56;23.10;99.90
3660;DHT22;1846;51.482;7.224;2023-06-26T07:35:23;23.20;99.90
3660;DHT22;1846;51.482;7.224;2023-06-26T07:37:50;23.40;99.90
3660;DHT22;1846;51.482;7.224;2023-06-26T07:40:17;23.40;99.90
3660;DHT22;1846;51.482;7.224;2023-06-26T07:42:45;23.30;99.90
3660;DHT22;1846;51.482;7.224;2023-06-26T07:45:13;23.30;99.90
3660;DHT22;1846;51.482;7.224;2023-06-26T07:47:40;23.40;99.90
3660;DHT22;1846;51.482;7.224;2023-06-26T07:50:07;23.40;99.90
3660;DHT22;1846;51.482;7.224;2023-06-26T07:52:34;23.60;99.90
3660;DHT22;1846;51.482;7.224;2023-06-26T07:55:01;23.60;99.90
3660;DHT22;1846;51.482;7.224;2023-06-26T07:57:29;23.70;99.90
3660;DHT22;1846;51.482;7.224;2023-06-26T07:59:58;23.70;99.90
3660;DHT22;1846;51.482;7.224;2023-06-26T08:02:25;23.80;99.90
3660;DHT22;1846;51.482;7.224;2023-06-26T08:04:52;23.70;99.90
3660;DHT22;1846;51.482;7.224;2023-06-26T08:07:19;23.90;99.90
3660;DHT22;1846;51.482;7.224;2023-06-26T08:09:46;23.80;99.90
3660;DHT22;1846;51.482;7.224;2023-06-26T08:12:12;23.80;99.90
3660;DHT22;1846;51.482;7.224;2023-06-26T08:14:39;23.70;99.90
3660;DHT22;1846;51.482;7.224;2023-06-26T08:17:07;23.80;99.90
3660;DHT22;1846;51.482;7.224;2023-06-26T08:19:34;23.70;99.90
3660;DHT22;1846;51.482;7.224;2023-06-26T08:22:01;23.80;99.90
3660;DHT22;1846;51.482;7.224;2023-06-26T08:24:28;23.90;99.90
3660;DHT22;1846;51.482;7.224;2023-06-26T08:26:55;23.80;99.90
3660;DHT22;1846;51.482;7.224;2023-06-26T08:29:22;23.80;99.90
3660;DHT22;1846;51.482;7.224;2023-06-26T08:31:48;23.80;99.90
3660;DHT22;1846;51.482;7.224;2023-06-26T08:34:16;23.70;99.90
3660;DHT22;1846;51.482;7.224;2023-06-26T08:36:43;23.70;99.90
3660;DHT22;1846;51.482;7.224;2023-06-26T08:39:11;23.80;99.90
3660;DHT22;1846;51.482;7.224;2023-06-26T08:41:38;23.80;99.90
3660;DHT22;1846;51.482;7.224;2023-06-26T08:44:05;24.00;99.90
3660;DHT22;1846;51.482;7.224;2023-06-26T08:46:32;24.10;99.90
3660;DHT22;1846;51.482;7.224;2023-06-26T08:49:02;24.20;99.90
3660;DHT22;1846;51.482;7.224;2023-06-26T08:51:34;24.40;99.90
3660;DHT22;1846;51.482;7.224;2023-06-26T08:54:07;24.50;99.90
3660;DHT22;1846;51.482;7.224;2023-06-26T08:56:37;24.50;99.90
3660;DHT22;1846;51.482;7.224;2023-06-26T09:01:42;24.70;99.90
3660;DHT22;1846;51.482;7.224;2023-06-26T09:04:09;24.80;99.90
3660;DHT22;1846;51.482;7.224;2023-06-26T09:06:37;24.50;99.90
3660;DHT22;1846;51.482;7.224;2023-06-26T09:09:05;24.40;99.90
3660;DHT22;1846;51.482;7.224;2023-06-26T09:11:33;24.40;99.90
3660;DHT22;1846;51.482;7.224;2023-06-26T09:14:00;24.50;99.90
3660;DHT22;1846;51.482;7.224;2023-06-26T09:16:30;24.50;99.90
3660;DHT22;1846;51.482;7.224;2023-06-26T09:18:57;24.70;99.90
3660;DHT22;1846;51.482;7.224;2023-06-26T09:21:25;24.80;99.90
3660;DHT22;1846;51.482;7.224;2023-06-26T09:23:53;24.50;99.90
3660;DHT22;1846;51.482;7.224;2023-06-26T09:26:21;24.20;99.90
3660;DHT22;1846;51.482;7.224;2023-06-26T09:28:49;24.20;99.90
3660;DHT22;1846;51.482;7.224;2023-06-26T09:31:17;24.30;99.90
3660;DHT22;1846;51.482;7.224;2023-06-26T09:33:46;24.50;99.90
3660;DHT22;1846;51.482;7.224;2023-06-26T09:36:19;24.80;99.90
3660;DHT22;1846;51.482;7.224;2023-06-26T09:38:46;24.90;99.90
3660;DHT22;1846;51.482;7.224;2023-06-26T09:41:17;24.90;99.90
3660;DHT22;1846;51.482;7.224;2023-06-26T09:43:47;25.10;99.90
3660;DHT22;1846;51.482;7.224;2023-06-26T09:46:15;25.20;99.90
3660;DHT22;1846;51.482;7.224;2023-06-26T09:48:43;25.30;99.90
3660;DHT22;1846;51.482;7.224;2023-06-26T09:51:10;25.20;99.90
3660;DHT22;1846;51.482;7.224;2023-06-26T09:53:37;25.10;99.50
3660;DHT22;1846;51.482;7.224;2023-06-26T09:56:07;24.90;99.90
3660;DHT22;1846;51.482;7.224;2023-06-26T09:58:36;24.70;99.90
3660;DHT22;1846;51.482;7.224;2023-06-26T10:01:04;24.50;99.90
3660;DHT22;1846;51.482;7.224;2023-06-26T10:03:32;24.60;99.90
3660;DHT22;1846;51.482;7.224;2023-06-26T10:06:00;24.70;99.90
3660;DHT22;1846;51.482;7.224;2023-06-26T10:08:28;24.70;99.90
3660;DHT22;1846;51.482;7.224;2023-06-26T10:10:57;24.80;92.30
3660;DHT22;1846;51.482;7.224;2023-06-26T10:13:27;24.90;82.60
3660;DHT22;1846;51.482;7.224;2023-06-26T10:15:58;25.10;91.40
3660;DHT22;1846;51.482;7.224;2023-06-26T10:18:26;25.30;73.80
3660;DHT22;1846;51.482;7.224;2023-06-26T10:20:55;25.50;51.90
3660;DHT22;1846;51.482;7.224;2023-06-26T10:23:23;25.30;43.00
3660;DHT22;1846;51.482;7.224;2023-06-26T10:25:52;25.20;55.80
3660;DHT22;1846;51.482;7.224;2023-06-26T10:28:22;25.70;55.60
3660;DHT22;1846;51.482;7.224;2023-06-26T10:30:51;26.30;42.00
3660;DHT22;1846;51.482;7.224;2023-06-26T10:33:20;27.00;30.80
3660;DHT22;1846;51.482;7.224;2023-06-26T10:35:47;27.40;25.00
3660;DHT22;1846;51.482;7.224;2023-06-26T10:38:15;27.20;21.40
3660;DHT22;1846;51.482;7.224;2023-06-26T10:40:43;27.10;20.60
3660;DHT22;1846;51.482;7.224;2023-06-26T10:43:12;26.80;17.50
3660;DHT22;1846;51.482;7.224;2023-06-26T10:45:43;26.30;13.90
3660;DHT22;1846;51.482;7.224;2023-06-26T10:48:13;25.80;14.80
3660;DHT22;1846;51.482;7.224;2023-06-26T10:50:43;25.80;19.90
3660;DHT22;1846;51.482;7.224;2023-06-26T10:53:12;26.40;22.70
3660;DHT22;1846;51.482;7.224;2023-06-26T10:55:44;26.90;18.40
3660;DHT22;1846;51.482;7.224;2023-06-26T10:58:33;27.90;22.90
3660;DHT22;1846;51.482;7.224;2023-06-26T11:01:17;29.10;18.50
3660;DHT22;1846;51.482;7.224;2023-06-26T11:03:45;29.90;13.50
3660;DHT22;1846;51.482;7.224;2023-06-26T11:06:18;30.30;9.10
3660;DHT22;1846;51.482;7.224;2023-06-26T11:08:45;30.90;7.70
3660;DHT22;1846;51.482;7.224;2023-06-26T11:11:12;30.90;5.80
3660;DHT22;1846;51.482;7.224;2023-06-26T11:13:40;31.10;6.50
3660;DHT22;1846;51.482;7.224;2023-06-26T11:16:07;31.50;7.60
3660;DHT22;1846;51.482;7.224;2023-06-26T11:18:35;31.60;7.40
3660;DHT22;1846;51.482;7.224;2023-06-26T11:21:06;31.70;7.80
3660;DHT22;1846;51.482;7.224;2023-06-26T11:23:35;30.90;4.60
3660;DHT22;1846;51.482;7.224;2023-06-26T11:26:16;29.70;1.00
3660;DHT22;1846;51.482;7.224;2023-06-26T11:28:47;28.20;1.00
3660;DHT22;1846;51.482;7.224;2023-06-26T11:31:24;27.20;1.00
3660;DHT22;1846;51.482;7.224;2023-06-26T11:33:51;26.60;1.00
3660;DHT22;1846;51.482;7.224;2023-06-26T11:36:18;26.40;2.80
3660;DHT22;1846;51.482;7.224;2023-06-26T11:38:52;26.30;3.60
3660;DHT22;1846;51.482;7.224;2023-06-26T11:41:19;26.00;2.20
3660;DHT22;1846;51.482;7.224;2023-06-26T11:43:47;26.40;5.70
3660;DHT22;1846;51.482;7.224;2023-06-26T11:46:16;26.90;10.40
3660;DHT22;1846;51.482;7.224;2023-06-26T11:48:43;26.40;1.00
3660;DHT22;1846;51.482;7.224;2023-06-26T11:51:12;26.20;1.00
3660;DHT22;1846;51.482;7.224;2023-06-26T11:53:40;26.40;1.00
3660;DHT22;1846;51.482;7.224;2023-06-26T11:56:09;26.80;1.00
3660;DHT22;1846;51.482;7.224;2023-06-26T11:58:37;27.70;1.00
3660;DHT22;1846;51.482;7.224;2023-06-26T12:01:03;27.70;1.00
3660;DHT22;1846;51.482;7.224;2023-06-26T12:03:32;27.90;1.00
3660;DHT22;1846;51.482;7.224;2023-06-26T12:05:59;28.00;1.00
3660;DHT22;1846;51.482;7.224;2023-06-26T12:08:29;27.80;1.00
3660;DHT22;1846;51.482;7.224;2023-06-26T12:10:56;27.80;1.00
3660;DHT22;1846;51.482;7.224;2023-06-26T12:13:24;27.60;1.00
3660;DHT22;1846;51.482;7.224;2023-06-26T12:15:51;27.20;1.00
3660;DHT22;1846;51.482;7.224;2023-06-26T12:18:19;26.80;1.00
3660;DHT22;1846;51.482;7.224;2023-06-26T12:20:49;26.40;1.00
3660;DHT22;1846;51.482;7.224;2023-06-26T12:23:16;26.30;1.00
3660;DHT22;1846;51.482;7.224;2023-06-26T12:25:43;26.40;1.00
3660;DHT22;1846;51.482;7.224;2023-06-26T12:28:18;26.60;1.00
3660;DHT22;1846;51.482;7.224;2023-06-26T12:31:12;26.60;1.00
3660;DHT22;1846;51.482;7.224;2023-06-26T12:33:39;26.60;1.00
3660;DHT22;1846;51.482;7.224;2023-06-26T12:36:11;26.60;1.00
3660;DHT22;1846;51.482;7.224;2023-06-26T12:38:38;26.60;1.00
3660;DHT22;1846;51.482;7.224;2023-06-26T12:41:05;26.40;1.00
3660;DHT22;1846;51.482;7.224;2023-06-26T12:43:32;26.20;1.00
3660;DHT22;1846;51.482;7.224;2023-06-26T12:46:05;26.30;1.00
3660;DHT22;1846;51.482;7.224;2023-06-26T12:48:39;26.60;1.00
3660;DHT22;1846;51.482;7.224;2023-06-26T12:51:12;27.30;1.00
3660;DHT22;1846;51.482;7.224;2023-06-26T12:53:39;27.30;1.00
3660;DHT22;1846;51.482;7.224;2023-06-26T12:56:06;27.20;1.00
3660;DHT22;1846;51.482;7.224;2023-06-26T12:58:33;27.00;1.00
3660;DHT22;1846;51.482;7.224;2023-06-26T13:01:02;26.60;1.00
3660;DHT22;1846;51.482;7.224;2023-06-26T13:03:31;26.50;1.00
3660;DHT22;1846;51.482;7.224;2023-06-26T13:05:57;26.40;1.00
3660;DHT22;1846;51.482;7.224;2023-06-26T13:08:24;26.20;1.00
3660;DHT22;1846;51.482;7.224;2023-06-26T13:10:51;26.20;1.00
3660;DHT22;1846;51.482;7.224;2023-06-26T13:13:18;26.10;1.00
3660;DHT22;1846;51.482;7.224;2023-06-26T13:15:45;25.90;1.00
3660;DHT22;1846;51.482;7.224;2023-06-26T13:18:11;25.80;1.00
3660;DHT22;1846;51.482;7.224;2023-06-26T13:20:40;25.70;1.00
3660;DHT22;1846;51.482;7.224;2023-06-26T13:23:06;25.70;1.00
3660;DHT22;1846;51.482;7.224;2023-06-26T13:25:33;25.70;1.00
3660;DHT22;1846;51.482;7.224;2023-06-26T13:28:00;25.60;1.00
3660;DHT22;1846;51.482;7.224;2023-06-26T13:30:27;25.20;1.00
3660;DHT22;1846;51.482;7.224;2023-06-26T13:32:55;25.00;1.00
3660;DHT22;1846;51.482;7.224;2023-06-26T13:35:22;25.00;1.00
3660;DHT22;1846;51.482;7.224;2023-06-26T13:37:50;25.10;1.00
3660;DHT22;1846;51.482;7.224;2023-06-26T13:40:17;25.20;1.00
3660;DHT22;1846;51.482;7.224;2023-06-26T13:42:44;25.30;1.00
3660;DHT22;1846;51.482;7.224;2023-06-26T13:45:11;25.50;1.00
3660;DHT22;1846;51.482;7.224;2023-06-26T13:47:38;25.70;1.00
3660;DHT22;1846;51.482;7.224;2023-06-26T13:50:07;25.90;1.00
3660;DHT22;1846;51.482;7.224;2023-06-26T13:52:34;25.90;1.00
3660;DHT22;1846;51.482;7.224;2023-06-26T13:55:03;25.80;1.00
3660;DHT22;1846;51.482;7.224;2023-06-26T13:57:30;25.70;1.00
3660;DHT22;1846;51.482;7.224;2023-06-26T13:59:58;25.60;1.00
3660;DHT22;1846;51.482;7.224;2023-06-26T14:02:24;25.70;1.00
3660;DHT22;1846;51.482;7.224;2023-06-26T14:04:52;25.70;1.00
3660;DHT22;1846;51.482;7.224;2023-06-26T14:07:18;25.60;1.00
3660;DHT22;1846;51.482;7.224;2023-06-26T14:09:45;25.50;1.00
3660;DHT22;1846;51.482;7.224;2023-06-26T14:12:13;25.50;1.00
3660;DHT22;1846;51.482;7.224;2023-06-26T14:14:40;25.50;1.00
3660;DHT22;1846;51.482;7.224;2023-06-26T14:17:07;25.50;1.00
3660;DHT22;1846;51.482;7.224;2023-06-26T14:19:34;25.50;1.00
3660;DHT22;1846;51.482;7.224;2023-06-26T14:22:01;25.60;1.00
3660;DHT22;1846;51.482;7.224;2023-06-26T14:24:28;25.60;1.00
3660;DHT22;1846;51.482;7.224;2023-06-26T14:26:55;25.50;1.00
3660;DHT22;1846;51.482;7.224;2023-06-26T14:29:23;25.50;1.00
3660;DHT22;1846;51.482;7.224;2023-06-26T14:31:50;25.50;1.00
3660;DHT22;1846;51.482;7.224;2023-06-26T14:34:17;25.30;1.00
3660;DHT22;1846;51.482;7.224;2023-06-26T14:36:43;25.40;1.00
3660;DHT22;1846;51.482;7.224;2023-06-26T14:39:10;25.50;1.00
3660;DHT22;1846;51.482;7.224;2023-06-26T14:41:37;25.60;1.00
3660;DHT22;1846;51.482;7.224;2023-06-26T14:44:04;25.50;1.00
3660;DHT22;1846;51.482;7.224;2023-06-26T14:46:35;25.60;1.00
3660;DHT22;1846;51.482;7.224;2023-06-26T14:49:02;25.60;1.00
3660;DHT22;1846;51.482;7.224;2023-06-26T14:51:29;25.30;1.00
3660;DHT22;1846;51.482;7.224;2023-06-26T14:53:55;25.30;1.00
3660;DHT22;1846;51.482;7.224;2023-06-26T14:56:22;25.30;1.00
3660;DHT22;1846;51.482;7.224;2023-06-26T14:58:49;25.10;1.00
3660;DHT22;1846;51.482;7.224;2023-06-26T15:01:17;25.10;1.00
3660;DHT22;1846;51.482;7.224;2023-06-26T15:03:46;25.40;1.00
3660;DHT22;1846;51.482;7.224;2023-06-26T15:06:13;25.40;1.00
3660;DHT22;1846;51.482;7.224;2023-06-26T15:08:40;25.30;1.00
3660;DHT22;1846;51.482;7.224;2023-06-26T15:11:07;25.10;1.00
3660;DHT22;1846;51.482;7.224;2023-06-26T15:13:34;25.20;1.00
3660;DHT22;1846;51.482;7.224;2023-06-26T15:16:01;25.00;1.00
3660;DHT22;1846;51.482;7.224;2023-06-26T15:18:27;25.10;1.00
3660;DHT22;1846;51.482;7.224;2023-06-26T15:20:55;25.10;1.00
3660;DHT22;1846;51.482;7.224;2023-06-26T15:23:22;25.00;1.00
3660;DHT22;1846;51.482;7.224;2023-06-26T15:25:49;25.00;1.00
3660;DHT22;1846;51.482;7.224;2023-06-26T15:28:16;25.00;1.00
3660;DHT22;1846;51.482;7.224;2023-06-26T15:30:43;24.80;1.00
3660;DHT22;1846;51.482;7.224;2023-06-26T15:33:09;24.90;1.00
3660;DHT22;1846;51.482;7.224;2023-06-26T15:35:36;24.80;1.00
3660;DHT22;1846;51.482;7.224;2023-06-26T15:38:04;24.90;1.00
3660;DHT22;1846;51.482;7.224;2023-06-26T15:40:31;24.90;1.00
3660;DHT22;1846;51.482;7.224;2023-06-26T15:42:58;25.00;1.00
3660;DHT22;1846;51.482;7.224;2023-06-26T15:45:25;24.90;1.00
3660;DHT22;1846;51.482;7.224;2023-06-26T15:47:52;24.70;1.00
3660;DHT22;1846;51.482;7.224;2023-06-26T15:50:19;24.60;1.00
3660;DHT22;1846;51.482;7.224;2023-06-26T15:52:46;24.50;1.00
3660;DHT22;1846;51.482;7.224;2023-06-26T15:55:14;24.50;1.00
3660;DHT22;1846;51.482;7.224;2023-06-26T15:57:41;24.20;1.00
3660;DHT22;1846;51.482;7.224;2023-06-26T16:00:09;24.10;1.00
3660;DHT22;1846;51.482;7.224;2023-06-26T16:02:37;24.10;1.00
3660;DHT22;1846;51.482;7.224;2023-06-26T16:05:05;24.00;1.00
3660;DHT22;1846;51.482;7.224;2023-06-26T16:07:31;24.00;1.00
3660;DHT22;1846;51.482;7.224;2023-06-26T16:09:58;24.10;1.00
3660;DHT22;1846;51.482;7.224;2023-06-26T16:12:26;24.10;1.00
3660;DHT22;1846;51.482;7.224;2023-06-26T16:14:53;23.90;1.00
3660;DHT22;1846;51.482;7.224;2023-06-26T16:17:20;23.90;1.00